createdAt,value
2022-11-30T00:01:20.334Z,23.63
2022-11-30T00:03:47.964Z,22.63
2022-11-30T00:06:16.987Z,21.55
2022-11-30T00:08:43.971Z,21.90
2022-11-30T00:11:18.007Z,21.77
2022-11-30T00:13:44.893Z,21.20
2022-11-30T00:16:11.707Z,20.25
2022-11-30T00:18:38.779Z,21.05
2022-11-30T00:21:11.195Z,21.23
2022-11-30T00:23:40.611Z,22.02
2022-11-30T00:26:09.899Z,21.65
2022-11-30T00:28:37.705Z,20.77
2022-11-30T00:31:06.963Z,20.60
2022-11-30T00:33:35.627Z,19.52
2022-11-30T00:36:05.978Z,20.30
2022-11-30T00:38:33.846Z,20.33
2022-11-30T00:41:01.530Z,22.88
2022-11-30T00:43:28.815Z,22.50
2022-11-30T00:48:23.681Z,23.50
2022-11-30T00:50:51.132Z,24.35
2022-11-30T00:53:19.229Z,24.42
2022-11-30T00:55:46.720Z,24.60
2022-11-30T00:58:14.029Z,24.80
2022-11-30T01:00:41.612Z,24.55
2022-11-30T01:03:08.835Z,27.08
2022-11-30T01:05:36.627Z,27.55
2022-11-30T01:08:05.599Z,24.60
2022-11-30T01:10:33.731Z,26.83
2022-11-30T01:13:01.189Z,26.23
2022-11-30T01:15:28.084Z,27.75
2022-11-30T01:17:55.128Z,27.73
2022-11-30T01:20:22.393Z,29.23
2022-11-30T01:22:49.202Z,29.50
2022-11-30T01:25:16.100Z,27.88
2022-11-30T01:27:43.242Z,27.38
2022-11-30T01:30:10.595Z,30.33
2022-11-30T01:32:37.424Z,27.05
2022-11-30T01:35:04.473Z,28.90
2022-11-30T01:37:31.441Z,28.75
2022-11-30T01:39:58.312Z,30.35
2022-11-30T01:42:25.283Z,29.05
2022-11-30T01:44:55.000Z,29.98
2022-11-30T01:47:39.384Z,28.85
2022-11-30T01:50:29.576Z,28.70
2022-11-30T01:52:57.988Z,30.88
2022-11-30T01:55:39.966Z,31.38
2022-11-30T01:58:13.876Z,27.05
2022-11-30T02:00:44.834Z,28.58
2022-11-30T02:03:31.682Z,29.42
2022-11-30T02:06:00.254Z,28.40
2022-11-30T02:08:28.694Z,27.85
2022-11-30T02:10:59.912Z,28.30
2022-11-30T02:13:50.185Z,27.70
2022-11-30T02:17:03.116Z,28.17
2022-11-30T02:19:47.790Z,27.85
2022-11-30T02:22:17.417Z,28.90
2022-11-30T02:25:15.191Z,29.08
2022-11-30T02:28:06.315Z,28.30
2022-11-30T02:30:37.927Z,28.20
2022-11-30T02:33:13.614Z,28.40
2022-11-30T02:35:44.361Z,28.42
2022-11-30T02:38:13.130Z,25.60
2022-11-30T02:40:40.241Z,28.13
2022-11-30T02:43:07.450Z,25.88
2022-11-30T02:45:44.546Z,26.45
2022-11-30T02:48:14.113Z,28.13
2022-11-30T02:51:13.472Z,27.05
2022-11-30T02:53:40.782Z,25.40
2022-11-30T02:56:07.824Z,26.52
2022-11-30T02:58:34.780Z,27.75
2022-11-30T03:01:01.737Z,25.98
2022-11-30T03:03:28.595Z,24.80
2022-11-30T03:05:55.431Z,22.70
2022-11-30T03:08:22.310Z,24.30
2022-11-30T03:10:49.159Z,23.20
2022-11-30T03:13:16.007Z,22.95
2022-11-30T03:15:42.892Z,24.70
2022-11-30T03:18:09.936Z,23.00
2022-11-30T03:20:41.501Z,22.63
2022-11-30T03:23:08.401Z,25.13
2022-11-30T03:25:35.440Z,23.55
2022-11-30T03:28:02.994Z,24.92
2022-11-30T03:30:29.809Z,24.23
2022-11-30T03:32:56.732Z,23.98
2022-11-30T03:35:23.575Z,24.60
2022-11-30T03:37:50.482Z,23.83
2022-11-30T03:40:17.498Z,23.92
2022-11-30T03:42:44.329Z,23.77
2022-11-30T03:45:11.504Z,24.38
2022-11-30T03:47:38.387Z,24.65
2022-11-30T03:50:05.952Z,25.83
2022-11-30T03:52:33.130Z,25.65
2022-11-30T03:54:59.921Z,24.05
2022-11-30T03:57:26.758Z,27.58
2022-11-30T03:59:53.560Z,27.42
2022-11-30T04:02:20.345Z,26.58
2022-11-30T04:04:47.472Z,26.23
2022-11-30T04:07:14.433Z,23.67
2022-11-30T04:09:41.279Z,26.42
2022-11-30T04:12:08.246Z,23.38
2022-11-30T04:14:35.120Z,24.95
2022-11-30T04:17:02.229Z,24.70
2022-11-30T04:19:29.067Z,24.65
2022-11-30T04:21:55.907Z,25.55
2022-11-30T04:24:22.667Z,25.52
2022-11-30T04:26:49.535Z,23.75
2022-11-30T04:29:16.346Z,26.08
2022-11-30T04:31:43.276Z,24.17
2022-11-30T04:34:10.172Z,24.17
2022-11-30T04:36:36.983Z,25.52
2022-11-30T04:39:03.927Z,25.88
2022-11-30T04:41:30.758Z,25.15
2022-11-30T04:43:57.637Z,25.27
2022-11-30T04:46:24.553Z,26.60
2022-11-30T04:48:51.404Z,24.60
2022-11-30T04:51:18.290Z,25.50
2022-11-30T04:53:45.110Z,24.15
2022-11-30T04:56:12.317Z,26.58
2022-11-30T04:58:40.004Z,26.10
2022-11-30T05:01:07.753Z,26.92
2022-11-30T05:03:34.914Z,26.38
2022-11-30T05:06:02.321Z,27.13
2022-11-30T05:08:29.364Z,28.65
2022-11-30T05:10:56.293Z,27.10
2022-11-30T05:13:26.379Z,27.75
2022-11-30T05:15:56.611Z,27.70
2022-11-30T05:18:23.536Z,28.48
2022-11-30T05:20:51.532Z,28.08
2022-11-30T05:23:19.249Z,26.50
2022-11-30T05:25:46.764Z,27.20
2022-11-30T05:28:14.467Z,26.42
2022-11-30T05:30:42.331Z,26.50
2022-11-30T05:33:09.615Z,25.60
2022-11-30T05:35:37.002Z,25.73
2022-11-30T05:38:04.382Z,24.35
2022-11-30T05:40:32.753Z,24.83
2022-11-30T05:43:01.937Z,23.85
2022-11-30T05:45:29.634Z,25.45
2022-11-30T05:47:56.638Z,26.00
2022-11-30T05:50:23.598Z,24.63
2022-11-30T05:52:56.452Z,24.27
2022-11-30T05:55:24.933Z,23.55
2022-11-30T05:57:51.790Z,24.15
2022-11-30T06:00:20.618Z,25.48
2022-11-30T06:02:47.586Z,24.27
2022-11-30T06:05:14.577Z,24.35
2022-11-30T06:07:41.910Z,22.13
2022-11-30T06:10:09.434Z,21.50
2022-11-30T06:12:36.251Z,22.77
2022-11-30T06:15:03.556Z,22.63
2022-11-30T06:17:30.450Z,20.88
2022-11-30T06:19:57.266Z,21.30
2022-11-30T06:22:24.133Z,21.13
2022-11-30T06:24:50.957Z,22.30
2022-11-30T06:27:17.790Z,20.30
2022-11-30T06:29:44.581Z,21.65
2022-11-30T06:32:11.476Z,23.23
2022-11-30T06:34:38.324Z,19.98
2022-11-30T06:37:05.145Z,21.85
2022-11-30T06:40:04.163Z,20.75
2022-11-30T06:42:19.840Z,21.30
2022-11-30T06:44:46.988Z,20.23
2022-11-30T06:47:14.033Z,22.90
2022-11-30T06:49:41.121Z,22.27
2022-11-30T06:52:07.963Z,21.85
2022-11-30T06:54:34.775Z,23.95
2022-11-30T06:57:01.627Z,22.80
2022-11-30T06:59:28.497Z,21.48
2022-11-30T07:01:55.351Z,20.92
2022-11-30T07:04:22.348Z,21.08
2022-11-30T07:06:49.181Z,20.42
2022-11-30T07:09:16.126Z,19.27
2022-11-30T07:11:42.978Z,20.60
2022-11-30T07:14:09.756Z,18.80
2022-11-30T07:16:36.808Z,19.75
2022-11-30T07:19:03.721Z,17.80
2022-11-30T07:21:30.591Z,19.92
2022-11-30T07:24:15.961Z,19.17
2022-11-30T07:26:42.786Z,19.52
2022-11-30T07:29:09.599Z,19.60
2022-11-30T07:31:36.517Z,21.20
2022-11-30T07:34:07.080Z,17.40
2022-11-30T07:36:34.955Z,18.83
2022-11-30T07:39:02.170Z,16.98
2022-11-30T07:41:29.020Z,18.45
2022-11-30T07:43:55.910Z,18.05
2022-11-30T07:46:22.854Z,18.45
2022-11-30T07:48:49.802Z,18.23
2022-11-30T07:51:22.034Z,17.63
2022-11-30T07:56:18.529Z,16.15
2022-11-30T07:58:45.513Z,18.63
2022-11-30T08:01:15.157Z,16.38
2022-11-30T08:03:42.842Z,18.40
2022-11-30T08:06:12.757Z,16.27
2022-11-30T08:08:42.283Z,15.82
2022-11-30T08:11:11.602Z,18.25
2022-11-30T08:13:38.597Z,14.93
2022-11-30T08:16:08.882Z,16.02
2022-11-30T08:18:36.798Z,14.93
2022-11-30T08:21:05.779Z,15.23
2022-11-30T08:23:35.093Z,14.65
2022-11-30T08:26:15.276Z,16.63
2022-11-30T08:28:47.973Z,16.05
2022-11-30T08:31:20.615Z,16.08
2022-11-30T08:33:47.884Z,14.85
2022-11-30T08:36:17.275Z,15.27
2022-11-30T08:38:45.763Z,16.50
2022-11-30T08:41:14.865Z,15.32
2022-11-30T08:43:42.106Z,15.50
2022-11-30T08:46:42.365Z,13.80
2022-11-30T08:52:15.958Z,14.13
2022-11-30T08:54:32.310Z,12.95
2022-11-30T08:56:59.312Z,14.73
2022-11-30T08:59:26.337Z,14.45
2022-11-30T09:01:53.260Z,15.70
2022-11-30T09:04:20.059Z,15.80
2022-11-30T09:06:47.186Z,15.63
2022-11-30T09:09:14.006Z,15.32
2022-11-30T09:11:41.392Z,15.43
2022-11-30T09:14:12.301Z,12.20
2022-11-30T09:16:39.161Z,13.68
2022-11-30T09:19:06.116Z,14.13
2022-11-30T09:21:33.061Z,14.68
2022-11-30T09:23:59.912Z,12.85
2022-11-30T09:26:26.797Z,13.38
2022-11-30T09:28:54.721Z,13.85
2022-11-30T09:31:24.669Z,12.10
2022-11-30T09:33:52.384Z,12.90
2022-11-30T09:36:21.896Z,12.55
2022-11-30T09:38:49.198Z,12.05
2022-11-30T09:41:43.643Z,10.50
2022-11-30T09:44:25.775Z,10.10
2022-11-30T09:47:10.592Z,9.82
2022-11-30T09:49:44.301Z,9.75
2022-11-30T09:52:19.676Z,10.73
2022-11-30T09:54:48.044Z,12.38
2022-11-30T09:57:21.034Z,10.15
2022-11-30T09:59:57.441Z,11.13
2022-11-30T10:02:31.009Z,10.38
2022-11-30T10:04:59.291Z,11.98
2022-11-30T10:08:05.264Z,11.40
2022-11-30T10:10:47.187Z,10.77
2022-11-30T10:13:30.704Z,12.85
2022-11-30T10:16:21.160Z,12.65
2022-11-30T10:19:05.626Z,14.18
2022-11-30T10:21:55.681Z,12.98
2022-11-30T10:24:34.467Z,12.27
2022-11-30T10:27:18.208Z,13.02
2022-11-30T10:29:45.115Z,12.40
2022-11-30T10:32:27.605Z,12.40
2022-11-30T10:35:01.839Z,12.70
2022-11-30T10:37:37.414Z,12.80
2022-11-30T10:40:14.749Z,14.38
2022-11-30T10:42:47.909Z,11.88
2022-11-30T10:45:19.553Z,12.02
2022-11-30T10:47:55.917Z,11.25
2022-11-30T10:50:26.447Z,9.75
2022-11-30T10:52:56.228Z,10.70
2022-11-30T10:55:34.644Z,10.63
2022-11-30T10:58:14.021Z,9.77
2022-11-30T11:00:43.418Z,12.65
2022-11-30T11:03:25.547Z,12.90
2022-11-30T11:06:15.288Z,14.18
2022-11-30T11:08:45.451Z,14.35
2022-11-30T11:11:36.699Z,15.57
2022-11-30T11:14:17.913Z,15.18
2022-11-30T11:17:21.756Z,17.38
2022-11-30T11:19:50.541Z,13.20
2022-11-30T11:22:17.439Z,13.00
2022-11-30T11:24:45.154Z,12.52
2022-11-30T11:27:30.751Z,11.68
2022-11-30T11:30:01.861Z,12.38
2022-11-30T11:32:30.440Z,11.77
2022-11-30T11:34:58.429Z,10.50
2022-11-30T11:37:33.993Z,9.25
2022-11-30T11:40:16.774Z,8.45
2022-11-30T11:42:58.309Z,9.25
2022-11-30T11:45:27.848Z,12.55
2022-11-30T11:48:29.653Z,12.55
2022-11-30T11:51:07.814Z,12.07
2022-11-30T11:53:53.000Z,10.93
2022-11-30T11:56:32.064Z,10.27
2022-11-30T11:59:00.921Z,11.77
2022-11-30T12:01:59.373Z,11.07
2022-11-30T12:04:38.265Z,10.35
2022-11-30T12:07:31.061Z,10.25
2022-11-30T12:10:21.884Z,9.77
2022-11-30T12:12:55.605Z,9.57
2022-11-30T12:15:47.191Z,9.93
2022-11-30T12:18:29.222Z,11.17
2022-11-30T12:21:15.574Z,10.40
2022-11-30T12:23:42.424Z,10.68
2022-11-30T12:26:33.638Z,10.85
2022-11-30T12:29:24.147Z,10.63
2022-11-30T12:32:12.671Z,9.63
2022-11-30T12:34:42.485Z,9.68
2022-11-30T12:37:47.615Z,8.95
2022-11-30T12:40:20.628Z,9.43
2022-11-30T12:43:01.737Z,9.70
2022-11-30T12:45:42.686Z,8.63
2022-11-30T12:48:19.354Z,10.15
2022-11-30T12:51:29.393Z,9.38
2022-11-30T12:54:04.990Z,8.80
2022-11-30T12:56:45.742Z,9.52
2022-11-30T12:59:56.385Z,9.52
2022-11-30T13:02:45.172Z,9.75
2022-11-30T13:05:21.341Z,9.32
2022-11-30T13:08:15.112Z,10.65
2022-11-30T13:10:48.659Z,11.43
2022-11-30T13:13:21.357Z,12.80
2022-11-30T13:15:49.787Z,12.13
2022-11-30T13:18:20.288Z,11.93
2022-11-30T13:21:06.556Z,12.98
2022-11-30T13:23:44.994Z,12.52
2022-11-30T13:26:20.742Z,12.50
2022-11-30T13:28:53.614Z,12.05
2022-11-30T13:31:20.440Z,10.82
2022-11-30T13:33:49.728Z,11.35
2022-11-30T13:36:39.507Z,11.95
2022-11-30T13:39:16.483Z,12.18
2022-11-30T13:42:06.683Z,12.60
2022-11-30T13:44:37.053Z,12.48
2022-11-30T13:47:19.253Z,12.68
2022-11-30T13:49:47.164Z,12.70
2022-11-30T13:52:24.078Z,14.10
2022-11-30T13:54:57.356Z,13.35
2022-11-30T13:57:30.550Z,14.18
2022-11-30T13:59:57.419Z,12.32
2022-11-30T14:02:33.609Z,12.35
2022-11-30T14:05:18.971Z,11.70
2022-11-30T14:07:50.374Z,14.93
2022-11-30T14:10:30.694Z,14.48
2022-11-30T14:13:02.680Z,14.13
2022-11-30T14:15:38.343Z,13.55
2022-11-30T14:18:08.164Z,13.65
2022-11-30T14:20:39.168Z,14.30
2022-11-30T14:23:19.090Z,13.07
2022-11-30T14:25:49.319Z,12.68
2022-11-30T14:28:21.560Z,12.40
2022-11-30T14:33:41.674Z,12.15
2022-11-30T14:36:09.518Z,13.45
2022-11-30T14:38:41.360Z,13.18
2022-11-30T14:41:27.016Z,13.90
2022-11-30T14:44:10.567Z,12.50
2022-11-30T14:46:37.434Z,13.20
2022-11-30T14:49:12.783Z,12.65
2022-11-30T14:51:40.503Z,12.13
2022-11-30T14:54:35.600Z,14.13
2022-11-30T14:57:18.851Z,16.23
2022-11-30T14:59:53.198Z,13.30
2022-11-30T15:02:26.372Z,12.82
2022-11-30T15:04:55.427Z,12.88
2022-11-30T15:07:23.184Z,13.35
2022-11-30T15:09:57.379Z,12.70
2022-11-30T15:12:25.698Z,12.27
2022-11-30T15:15:23.394Z,14.65
2022-11-30T15:18:14.876Z,17.15
2022-11-30T15:20:57.691Z,18.05
2022-11-30T15:23:24.770Z,19.08
2022-11-30T15:26:12.944Z,16.20
2022-11-30T15:28:44.323Z,15.93
2022-11-30T15:31:15.068Z,11.85
2022-11-30T15:33:45.536Z,14.13
2022-11-30T15:36:27.785Z,13.38
2022-11-30T15:39:01.536Z,13.15
2022-11-30T15:41:28.472Z,14.35
2022-11-30T15:43:57.342Z,13.38
2022-11-30T15:46:46.026Z,16.55
2022-11-30T15:49:17.059Z,14.75
2022-11-30T15:51:46.546Z,15.10
2022-11-30T15:54:15.391Z,13.48
2022-11-30T15:56:54.654Z,13.75
2022-11-30T15:59:24.719Z,13.40
2022-11-30T16:02:08.358Z,14.45
2022-11-30T16:05:13.633Z,15.20
2022-11-30T16:08:02.783Z,16.83
2022-11-30T16:10:38.000Z,15.95
2022-11-30T16:13:05.734Z,15.10
2022-11-30T16:15:36.119Z,14.23
2022-11-30T16:18:13.597Z,13.35
2022-11-30T16:20:44.120Z,13.18
2022-11-30T16:23:15.174Z,15.23
2022-11-30T16:25:43.697Z,14.75
2022-11-30T16:28:12.845Z,15.13
2022-11-30T16:30:41.090Z,14.98
2022-11-30T16:33:26.739Z,15.85
2022-11-30T16:35:59.430Z,14.98
2022-11-30T16:38:27.349Z,15.10
2022-11-30T16:40:55.736Z,18.10
2022-11-30T16:43:25.671Z,16.83
2022-11-30T16:45:52.586Z,14.95
2022-11-30T16:48:19.990Z,15.57
2022-11-30T16:50:47.094Z,17.08
2022-11-30T16:53:15.577Z,17.60
2022-11-30T16:55:42.584Z,18.00
2022-11-30T16:58:09.437Z,16.75
2022-11-30T17:00:38.419Z,19.20
2022-11-30T17:03:28.632Z,17.73
2022-11-30T17:05:55.442Z,16.35
2022-11-30T17:08:22.349Z,17.63
2022-11-30T17:10:53.991Z,15.50
2022-11-30T17:13:21.246Z,13.00
2022-11-30T17:15:49.092Z,17.83
2022-11-30T17:18:16.067Z,17.10
2022-11-30T17:20:43.050Z,18.65
2022-11-30T17:23:10.050Z,16.77
2022-11-30T17:25:36.894Z,16.77
2022-11-30T17:28:03.870Z,18.17
2022-11-30T17:30:30.786Z,17.48
2022-11-30T17:32:57.733Z,17.17
2022-11-30T17:35:24.532Z,17.83
2022-11-30T17:37:53.686Z,17.33
2022-11-30T17:40:20.524Z,18.85
2022-11-30T17:42:47.370Z,18.52
2022-11-30T17:45:14.297Z,19.35
2022-11-30T17:47:41.232Z,18.20
2022-11-30T17:50:09.087Z,19.00
2022-11-30T17:52:35.989Z,17.92
2022-11-30T17:55:03.298Z,17.92
2022-11-30T17:57:30.121Z,16.48
2022-11-30T17:59:56.979Z,18.40
2022-11-30T18:02:23.871Z,17.58
2022-11-30T18:04:52.620Z,18.63
2022-11-30T18:07:20.146Z,17.75
2022-11-30T18:09:47.100Z,17.60
2022-11-30T18:12:14.035Z,19.65
2022-11-30T18:14:40.971Z,17.80
2022-11-30T18:17:08.022Z,18.42
2022-11-30T18:19:34.924Z,19.38
2022-11-30T18:22:01.744Z,18.50
2022-11-30T18:24:28.518Z,19.15
2022-11-30T18:26:55.353Z,17.90
2022-11-30T18:29:22.221Z,18.38
2022-11-30T18:31:49.140Z,19.67
2022-11-30T18:34:15.941Z,19.80
2022-11-30T18:36:42.964Z,19.75
2022-11-30T18:39:10.141Z,19.13
2022-11-30T18:41:36.986Z,17.88
2022-11-30T18:44:04.918Z,17.65
2022-11-30T18:46:32.307Z,19.52
2022-11-30T18:48:59.670Z,17.10
2022-11-30T18:51:29.122Z,16.98
2022-11-30T18:54:07.589Z,17.55
2022-11-30T18:56:37.052Z,17.50
2022-11-30T18:59:14.617Z,16.77
2022-11-30T19:01:42.056Z,19.60
2022-11-30T19:04:10.808Z,17.17
2022-11-30T19:06:39.650Z,17.60
2022-11-30T19:09:09.429Z,18.15
2022-11-30T19:11:37.566Z,16.70
2022-11-30T19:14:04.833Z,18.83
2022-11-30T19:16:36.445Z,17.70
2022-11-30T19:19:06.510Z,17.13
2022-11-30T19:21:33.557Z,16.92
2022-11-30T19:24:00.592Z,17.33
2022-11-30T19:26:28.536Z,16.55
2022-11-30T19:28:56.994Z,17.90
2022-11-30T19:31:25.046Z,18.15
2022-11-30T19:33:53.952Z,16.95
2022-11-30T19:36:26.553Z,16.40
2022-11-30T19:38:53.831Z,17.05
2022-11-30T19:41:21.691Z,17.27
2022-11-30T19:43:59.588Z,17.10
2022-11-30T19:46:30.537Z,16.75
2022-11-30T19:49:00.697Z,17.58
2022-11-30T19:51:28.267Z,18.30
2022-11-30T19:53:55.768Z,17.05
2022-11-30T19:56:23.672Z,15.10
2022-11-30T19:58:50.829Z,16.33
2022-11-30T20:01:22.926Z,16.92
2022-11-30T20:06:24.072Z,14.80
2022-11-30T20:08:51.059Z,16.90
2022-11-30T20:11:18.164Z,15.32
2022-11-30T20:13:46.012Z,15.15
2022-11-30T20:16:15.380Z,17.02
2022-11-30T20:18:46.256Z,16.70
2022-11-30T20:21:18.769Z,16.93
2022-11-30T20:23:47.351Z,15.35
2022-11-30T20:26:19.928Z,15.52
2022-11-30T20:28:48.306Z,16.17
2022-11-30T20:31:16.991Z,15.98
2022-11-30T20:33:44.551Z,16.20
2022-11-30T20:36:12.223Z,15.02
2022-11-30T20:38:40.053Z,15.68
2022-11-30T20:41:13.948Z,15.85
2022-11-30T20:43:41.584Z,15.10
2022-11-30T20:46:30.019Z,15.85
2022-11-30T20:48:57.434Z,15.98
2022-11-30T20:51:32.076Z,16.67
2022-11-30T20:54:01.773Z,15.50
2022-11-30T20:56:28.726Z,15.32
2022-11-30T20:58:55.825Z,16.75
2022-11-30T21:01:23.242Z,16.38
2022-11-30T21:03:50.592Z,16.67
2022-11-30T21:06:17.546Z,16.90
2022-11-30T21:08:44.683Z,16.73
2022-11-30T21:11:14.344Z,16.70
2022-11-30T21:13:43.964Z,16.17
2022-11-30T21:16:11.517Z,17.45
2022-11-30T21:18:40.274Z,17.13
2022-11-30T21:21:20.111Z,16.83
2022-11-30T21:23:48.369Z,17.05
2022-11-30T21:26:26.807Z,16.65
2022-11-30T21:28:55.976Z,16.75
2022-11-30T21:31:23.389Z,17.08
2022-11-30T21:33:53.677Z,16.85
2022-11-30T21:36:21.842Z,17.50
2022-11-30T21:38:53.296Z,17.83
2022-11-30T21:41:20.202Z,17.27
2022-11-30T21:43:47.081Z,17.73
2022-11-30T21:46:17.151Z,17.83
2022-11-30T21:48:50.032Z,19.33
2022-11-30T21:51:22.525Z,19.30
2022-11-30T21:53:55.205Z,18.17
2022-11-30T21:56:24.965Z,17.52
2022-11-30T21:58:52.561Z,18.65
2022-11-30T22:01:20.700Z,17.98
2022-11-30T22:03:48.043Z,18.38
2022-11-30T22:06:17.496Z,16.50
2022-11-30T22:08:44.986Z,16.88
2022-11-30T22:11:14.396Z,18.88
2022-11-30T22:13:42.026Z,19.05
2022-11-30T22:16:15.766Z,18.10
2022-11-30T22:18:43.797Z,17.75
2022-11-30T22:21:16.218Z,19.70
2022-11-30T22:23:49.325Z,20.00
2022-11-30T22:26:18.761Z,20.08
2022-11-30T22:28:48.435Z,18.85
2022-11-30T22:31:18.268Z,19.90
2022-11-30T22:33:46.087Z,20.83
2022-11-30T22:36:21.547Z,19.55
2022-11-30T22:38:53.065Z,18.58
2022-11-30T22:41:19.853Z,17.95
2022-11-30T22:43:47.258Z,19.48
2022-11-30T22:46:19.314Z,19.75
2022-11-30T22:48:47.113Z,19.17
2022-11-30T22:51:16.585Z,19.98
2022-11-30T22:53:43.653Z,18.88
2022-11-30T22:56:13.520Z,17.40
2022-11-30T22:58:41.828Z,19.75
2022-11-30T23:01:14.342Z,18.63
2022-11-30T23:03:42.988Z,19.65
2022-11-30T23:06:11.332Z,19.13
2022-11-30T23:08:38.706Z,19.40
2022-11-30T23:11:08.264Z,18.30
2022-11-30T23:13:35.735Z,19.73
2022-11-30T23:16:03.430Z,17.85
2022-11-30T23:18:32.415Z,19.42
2022-11-30T23:21:14.140Z,18.90
2022-11-30T23:23:42.219Z,17.52
2022-11-30T23:26:12.172Z,18.63
2022-11-30T23:28:42.830Z,19.05
2022-11-30T23:31:32.275Z,17.58
2022-11-30T23:34:01.976Z,19.10
2022-11-30T23:36:28.852Z,17.73
2022-11-30T23:38:58.834Z,18.27
2022-11-30T23:41:26.333Z,17.25
2022-11-30T23:43:53.514Z,17.42
2022-11-30T23:46:20.413Z,19.65
2022-11-30T23:48:47.766Z,17.90
2022-11-30T23:51:14.652Z,18.75
2022-11-30T23:53:41.650Z,17.75
2022-11-30T23:56:12.750Z,17.38
2022-11-30T23:58:42.359Z,18.90
